createdAt,value
2023-05-20T00:00:33.019Z,6.30
2023-05-20T00:03:01.010Z,8.30
2023-05-20T00:05:28.331Z,6.22
2023-05-20T00:07:55.581Z,5.53
2023-05-20T00:10:22.797Z,6.78
2023-05-20T00:12:50.010Z,6.07
2023-05-20T00:15:17.278Z,5.60
2023-05-20T00:17:44.485Z,5.68
2023-05-20T00:20:11.843Z,5.82
2023-05-20T00:22:39.045Z,5.43
2023-05-20T00:25:06.359Z,6.38
2023-05-20T00:27:33.547Z,4.80
2023-05-20T00:30:01.023Z,6.03
2023-05-20T00:32:28.335Z,5.88
2023-05-20T00:34:59.285Z,8.50
2023-05-20T00:37:27.154Z,6.15
2023-05-20T00:39:54.593Z,6.22
2023-05-20T00:42:22.553Z,6.28
2023-05-20T00:44:49.823Z,5.50
2023-05-20T00:47:18.301Z,7.13
2023-05-20T00:49:50.516Z,5.68
2023-05-20T00:52:19.172Z,6.25
2023-05-20T00:54:46.403Z,8.20
2023-05-20T00:57:14.299Z,6.88
2023-05-20T00:59:43.509Z,7.32
2023-05-20T01:02:12.096Z,7.72
2023-05-20T01:04:39.398Z,9.20
2023-05-20T01:07:07.358Z,8.20
2023-05-20T01:09:34.730Z,8.90
2023-05-20T01:12:10.544Z,7.93
2023-05-20T01:14:39.466Z,8.13
2023-05-20T01:17:11.036Z,5.82
2023-05-20T01:19:44.152Z,9.20
2023-05-20T01:22:15.447Z,6.85
2023-05-20T01:24:43.749Z,9.70
2023-05-20T01:27:11.702Z,8.25
2023-05-20T01:29:39.098Z,6.97
2023-05-20T01:32:08.196Z,7.00
2023-05-20T01:34:36.982Z,6.05
2023-05-20T01:37:05.967Z,6.63
2023-05-20T01:39:39.599Z,6.63
2023-05-20T01:42:06.944Z,7.07
2023-05-20T01:44:34.300Z,7.60
2023-05-20T01:47:01.753Z,8.93
2023-05-20T01:49:29.456Z,6.82
2023-05-20T01:51:56.971Z,6.60
2023-05-20T01:54:24.320Z,6.95
2023-05-20T01:56:51.570Z,6.63
2023-05-20T01:59:18.945Z,8.32
2023-05-20T02:01:46.288Z,8.15
2023-05-20T02:04:13.582Z,6.95
2023-05-20T02:06:41.087Z,7.88
2023-05-20T02:09:08.455Z,9.35
2023-05-20T02:11:36.262Z,8.68
2023-05-20T02:14:03.525Z,8.80
2023-05-20T02:16:30.764Z,8.10
2023-05-20T02:18:58.694Z,6.85
2023-05-20T02:21:26.390Z,9.10
2023-05-20T02:23:53.996Z,9.27
2023-05-20T02:26:21.210Z,8.32
2023-05-20T02:28:50.808Z,7.97
2023-05-20T02:31:18.382Z,7.68
2023-05-20T02:33:46.187Z,12.00
2023-05-20T02:36:13.661Z,8.73
2023-05-20T02:38:41.639Z,8.48
2023-05-20T02:41:08.826Z,8.38
2023-05-20T02:43:36.530Z,8.02
2023-05-20T02:46:04.069Z,8.30
2023-05-20T02:48:31.388Z,8.13
2023-05-20T02:51:00.222Z,7.97
2023-05-20T02:53:27.419Z,10.18
2023-05-20T02:55:54.650Z,10.18
2023-05-20T02:58:26.535Z,10.25
2023-05-20T03:00:53.960Z,9.30
2023-05-20T03:03:21.767Z,13.00
2023-05-20T03:05:50.212Z,12.43
2023-05-20T03:08:17.456Z,12.93
2023-05-20T03:10:44.696Z,13.68
2023-05-20T03:13:12.093Z,13.50
2023-05-20T03:15:39.807Z,13.80
2023-05-20T03:18:08.584Z,10.88
2023-05-20T03:20:39.151Z,14.00
2023-05-20T03:23:07.314Z,12.88
2023-05-20T03:25:34.876Z,15.30
2023-05-20T03:28:02.393Z,13.25
2023-05-20T03:30:29.662Z,12.13
2023-05-20T03:32:57.932Z,14.00
2023-05-20T03:35:25.848Z,11.68
2023-05-20T03:37:53.405Z,12.80
2023-05-20T03:40:21.396Z,12.38
2023-05-20T03:42:49.876Z,13.13
2023-05-20T03:45:17.230Z,13.10
2023-05-20T03:47:44.440Z,12.45
2023-05-20T03:50:11.835Z,14.80
2023-05-20T03:52:40.946Z,12.70
2023-05-20T03:55:08.961Z,13.70
2023-05-20T03:57:36.694Z,14.00
2023-05-20T04:00:10.876Z,12.32
2023-05-20T04:02:38.716Z,15.23
2023-05-20T04:05:08.807Z,13.57
2023-05-20T04:07:36.079Z,13.98
2023-05-20T04:10:03.839Z,13.13
2023-05-20T04:12:32.399Z,14.27
2023-05-20T04:15:02.721Z,15.30
2023-05-20T04:17:30.689Z,14.98
2023-05-20T04:19:59.818Z,14.98
2023-05-20T04:22:27.575Z,14.07
2023-05-20T04:24:54.794Z,15.68
2023-05-20T04:27:22.081Z,13.32
2023-05-20T04:29:49.284Z,17.75
2023-05-20T04:32:18.748Z,18.48
2023-05-20T04:34:46.722Z,17.35
2023-05-20T04:37:14.207Z,13.63
2023-05-20T04:39:43.675Z,18.98
2023-05-20T04:42:11.004Z,15.52
2023-05-20T04:44:38.688Z,19.45
2023-05-20T04:47:08.059Z,20.75
2023-05-20T04:49:35.542Z,18.27
2023-05-20T04:52:03.202Z,17.75
2023-05-20T04:54:30.935Z,21.77
2023-05-20T04:56:58.186Z,19.23
2023-05-20T04:59:25.658Z,22.45
2023-05-20T05:01:53.077Z,21.83
2023-05-20T05:04:20.381Z,23.73
2023-05-20T05:06:49.115Z,24.00
2023-05-20T05:09:16.314Z,20.13
2023-05-20T05:11:43.602Z,24.63
2023-05-20T05:14:10.936Z,22.42
2023-05-20T05:16:38.153Z,27.17
2023-05-20T05:19:05.646Z,24.35
2023-05-20T05:21:32.878Z,26.35
2023-05-20T05:24:00.183Z,22.70
2023-05-20T05:26:27.403Z,22.95
2023-05-20T05:28:55.833Z,22.55
2023-05-20T05:31:23.114Z,27.38
2023-05-20T05:33:50.310Z,24.48
2023-05-20T05:36:17.807Z,24.05
2023-05-20T05:38:45.075Z,27.77
2023-05-20T05:41:12.357Z,25.52
2023-05-20T05:43:39.575Z,29.00
2023-05-20T05:46:07.133Z,24.98
2023-05-20T05:48:34.567Z,25.92
2023-05-20T05:51:01.793Z,24.23
2023-05-20T05:53:28.990Z,25.90
2023-05-20T05:55:56.248Z,24.58
2023-05-20T05:58:23.453Z,25.20
2023-05-20T06:00:54.809Z,25.70
2023-05-20T06:03:22.306Z,27.15
2023-05-20T06:05:49.640Z,21.17
2023-05-20T06:08:16.998Z,21.40
2023-05-20T06:10:50.152Z,24.00
2023-05-20T06:13:17.593Z,22.65
2023-05-20T06:15:46.359Z,22.50
2023-05-20T06:18:14.255Z,20.98
2023-05-20T06:20:41.747Z,23.45
2023-05-20T06:23:09.119Z,23.80
2023-05-20T06:25:36.474Z,28.33
2023-05-20T06:28:03.687Z,24.50
2023-05-20T06:30:30.885Z,21.35
2023-05-20T06:32:58.117Z,24.77
2023-05-20T06:35:25.489Z,23.52
2023-05-20T06:37:52.858Z,22.73
2023-05-20T06:40:20.210Z,22.80
2023-05-20T06:42:47.561Z,26.30
2023-05-20T06:45:14.878Z,21.50
2023-05-20T06:47:42.242Z,22.52
2023-05-20T06:50:09.885Z,25.48
2023-05-20T06:52:37.106Z,25.35
2023-05-20T06:55:06.006Z,25.40
2023-05-20T06:57:33.342Z,25.17
2023-05-20T07:00:01.925Z,23.95
2023-05-20T07:02:29.136Z,24.33
2023-05-20T07:04:56.331Z,23.85
2023-05-20T07:07:23.505Z,22.85
2023-05-20T07:09:51.279Z,22.67
2023-05-20T07:12:18.459Z,23.38
2023-05-20T07:14:45.703Z,22.65
2023-05-20T07:17:13.683Z,26.55
2023-05-20T07:19:41.121Z,19.63
2023-05-20T07:22:08.455Z,19.02
2023-05-20T07:24:36.336Z,20.63
2023-05-20T07:27:04.763Z,20.80
2023-05-20T07:29:32.050Z,18.27
2023-05-20T07:31:59.394Z,15.73
2023-05-20T07:34:26.833Z,15.75
2023-05-20T07:36:54.111Z,14.30
2023-05-20T07:39:21.301Z,13.07
2023-05-20T07:41:50.509Z,12.38
2023-05-20T07:44:19.056Z,13.93
2023-05-20T07:46:46.231Z,14.15
2023-05-20T07:49:13.491Z,12.70
2023-05-20T07:51:40.736Z,13.07
2023-05-20T07:54:08.185Z,11.93
2023-05-20T07:56:35.369Z,13.80
2023-05-20T07:59:03.374Z,13.07
2023-05-20T08:01:30.973Z,10.80
2023-05-20T08:03:58.371Z,11.80
2023-05-20T08:06:28.763Z,10.93
2023-05-20T08:08:56.925Z,12.23
2023-05-20T08:11:24.309Z,9.77
2023-05-20T08:13:51.486Z,9.85
2023-05-20T08:16:18.756Z,9.57
2023-05-20T08:18:46.210Z,9.60
2023-05-20T08:21:14.167Z,8.10
2023-05-20T08:23:41.369Z,8.20
2023-05-20T08:26:08.696Z,9.60
2023-05-20T08:28:37.839Z,8.45
2023-05-20T08:31:05.164Z,8.55
2023-05-20T08:33:32.534Z,8.85
2023-05-20T08:35:59.747Z,8.48
2023-05-20T08:38:27.042Z,7.88
2023-05-20T08:40:55.836Z,8.27
2023-05-20T08:43:23.589Z,8.40
2023-05-20T08:45:54.931Z,7.82
2023-05-20T08:48:23.993Z,7.88
2023-05-20T08:50:51.901Z,10.23
2023-05-20T08:53:23.342Z,7.57
2023-05-20T08:55:55.420Z,8.15
2023-05-20T08:58:23.534Z,9.27
2023-05-20T09:00:51.356Z,7.93
2023-05-20T09:03:20.217Z,9.85
2023-05-20T09:05:48.016Z,6.75
2023-05-20T09:08:15.311Z,7.00
2023-05-20T09:10:45.148Z,5.63
2023-05-20T09:13:12.709Z,6.32
2023-05-20T09:15:40.616Z,6.15
2023-05-20T09:18:10.872Z,7.38
2023-05-20T09:20:38.619Z,5.88
2023-05-20T09:23:07.168Z,5.60
2023-05-20T09:25:34.889Z,5.68
2023-05-20T09:28:03.226Z,5.93
2023-05-20T09:30:30.456Z,5.63
2023-05-20T09:32:58.788Z,4.70
2023-05-20T09:35:26.948Z,4.85
2023-05-20T09:37:55.489Z,5.75
2023-05-20T09:40:29.422Z,7.55
2023-05-20T09:43:12.178Z,5.90
2023-05-20T09:45:39.745Z,4.68
2023-05-20T09:48:09.224Z,6.95
2023-05-20T09:50:36.776Z,6.47
2023-05-20T09:53:05.277Z,4.97
2023-05-20T09:55:32.782Z,4.60
2023-05-20T09:58:03.249Z,5.22
2023-05-20T10:00:31.537Z,6.38
2023-05-20T10:02:59.048Z,5.10
2023-05-20T10:05:30.355Z,5.22
2023-05-20T10:08:07.171Z,6.72
2023-05-20T10:10:52.194Z,4.93
2023-05-20T10:13:23.944Z,6.18
2023-05-20T10:16:11.388Z,5.20
2023-05-20T10:18:44.754Z,5.05
2023-05-20T10:21:18.810Z,5.68
2023-05-20T10:23:46.672Z,6.68
2023-05-20T10:26:13.889Z,4.30
2023-05-20T10:28:41.958Z,4.03
2023-05-20T10:31:25.805Z,4.18
2023-05-20T10:33:53.614Z,3.97
2023-05-20T10:36:26.206Z,4.07
2023-05-20T10:38:54.667Z,3.25
2023-05-20T10:41:23.243Z,4.07
2023-05-20T10:44:00.645Z,4.93
2023-05-20T10:46:36.643Z,3.83
2023-05-20T10:49:25.061Z,3.35
2023-05-20T10:51:54.463Z,3.10
2023-05-20T10:54:23.229Z,3.13
2023-05-20T10:56:54.069Z,3.70
2023-05-20T10:59:24.294Z,3.55
2023-05-20T11:01:53.165Z,4.70
2023-05-20T11:04:20.420Z,4.57
2023-05-20T11:06:53.518Z,3.38
2023-05-20T11:09:21.003Z,5.60
2023-05-20T11:11:48.577Z,6.15
2023-05-20T11:14:18.063Z,5.45
2023-05-20T11:16:45.457Z,4.38
2023-05-20T11:19:17.542Z,3.88
2023-05-20T11:21:52.310Z,4.55
2023-05-20T11:26:46.731Z,3.88
2023-05-20T11:29:14.404Z,3.67
2023-05-20T11:31:41.686Z,4.15
2023-05-20T11:34:10.336Z,4.57
2023-05-20T11:36:41.627Z,5.55
2023-05-20T11:39:11.354Z,4.18
2023-05-20T11:41:39.974Z,4.28
2023-05-20T11:44:11.263Z,4.00
2023-05-20T11:46:42.502Z,4.65
2023-05-20T11:49:09.988Z,3.55
2023-05-20T11:51:39.727Z,4.40
2023-05-20T11:54:08.110Z,4.18
2023-05-20T11:56:39.428Z,4.70
2023-05-20T11:59:07.402Z,4.03
2023-05-20T12:01:43.431Z,3.47
2023-05-20T12:04:11.326Z,3.45
2023-05-20T12:06:38.724Z,3.40
2023-05-20T12:09:07.292Z,4.80
2023-05-20T12:11:39.925Z,5.60
2023-05-20T12:14:07.901Z,4.47
2023-05-20T12:16:35.857Z,3.63
2023-05-20T12:19:05.006Z,4.00
2023-05-20T12:21:32.571Z,3.92
2023-05-20T12:24:04.739Z,2.88
2023-05-20T12:26:32.197Z,5.18
2023-05-20T12:28:59.378Z,3.50
2023-05-20T12:31:26.944Z,3.78
2023-05-20T12:33:54.209Z,5.55
2023-05-20T12:36:21.942Z,4.30
2023-05-20T12:38:49.228Z,8.77
2023-05-20T12:41:16.475Z,5.05
2023-05-20T12:43:43.724Z,5.57
2023-05-20T12:46:10.973Z,4.60
2023-05-20T12:48:39.508Z,4.85
2023-05-20T12:51:08.356Z,6.68
2023-05-20T12:53:36.001Z,5.43
2023-05-20T12:56:03.254Z,5.47
2023-05-20T12:58:30.611Z,8.60
2023-05-20T13:00:57.904Z,5.70
2023-05-20T13:03:25.190Z,6.25
2023-05-20T13:05:52.461Z,6.38
2023-05-20T13:08:19.737Z,9.15
2023-05-20T13:10:46.966Z,8.40
2023-05-20T13:13:21.199Z,10.43
2023-05-20T13:15:51.911Z,10.25
2023-05-20T13:18:20.274Z,10.75
2023-05-20T13:20:47.492Z,8.38
2023-05-20T13:23:14.761Z,6.90
2023-05-20T13:25:41.970Z,7.95
2023-05-20T13:28:09.763Z,7.18
2023-05-20T13:30:37.277Z,8.80
2023-05-20T13:33:04.837Z,6.57
2023-05-20T13:35:32.030Z,8.35
2023-05-20T13:37:59.407Z,6.85
2023-05-20T13:40:26.844Z,10.15
2023-05-20T13:42:54.247Z,7.70
2023-05-20T13:45:23.257Z,10.27
2023-05-20T13:47:50.590Z,8.30
2023-05-20T13:50:17.903Z,6.93
2023-05-20T13:52:45.090Z,7.38
2023-05-20T13:55:12.462Z,9.45
2023-05-20T13:57:39.745Z,8.25
2023-05-20T14:00:07.332Z,9.68
2023-05-20T14:02:34.766Z,8.75
2023-05-20T14:05:02.508Z,7.05
2023-05-20T14:07:29.696Z,8.13
2023-05-20T14:09:56.868Z,8.90
2023-05-20T14:12:24.353Z,10.05
2023-05-20T14:14:51.748Z,9.65
2023-05-20T14:17:19.130Z,9.95
2023-05-20T14:19:46.530Z,8.52
2023-05-20T14:22:15.709Z,7.88
2023-05-20T14:24:42.991Z,7.50
2023-05-20T14:27:11.467Z,10.82
2023-05-20T14:29:38.641Z,7.43
2023-05-20T14:32:06.204Z,8.88
2023-05-20T14:34:33.399Z,9.45
2023-05-20T14:37:06.286Z,9.02
2023-05-20T14:39:33.478Z,8.55
2023-05-20T14:42:00.727Z,9.48
2023-05-20T14:44:27.953Z,7.85
2023-05-20T14:46:55.427Z,8.43
2023-05-20T14:49:22.708Z,8.15
2023-05-20T14:51:49.910Z,9.52
2023-05-20T14:54:19.059Z,8.82
2023-05-20T14:56:47.561Z,10.63
2023-05-20T14:59:16.478Z,10.27
2023-05-20T15:01:43.735Z,8.68
2023-05-20T15:04:11.126Z,8.82
2023-05-20T15:06:38.761Z,9.45
2023-05-20T15:09:06.446Z,8.00
2023-05-20T15:11:33.741Z,10.55
2023-05-20T15:14:01.077Z,8.18
2023-05-20T15:16:28.406Z,9.10
2023-05-20T15:18:56.073Z,9.13
2023-05-20T15:21:23.475Z,8.15
2023-05-20T15:23:50.809Z,9.82
2023-05-20T15:26:18.124Z,8.90
2023-05-20T15:28:45.382Z,8.40
2023-05-20T15:31:12.589Z,7.82
2023-05-20T15:33:39.989Z,8.93
2023-05-20T15:36:07.389Z,9.88
2023-05-20T15:38:34.620Z,8.68
2023-05-20T15:41:02.216Z,10.82
2023-05-20T15:43:29.521Z,8.95
2023-05-20T15:45:56.773Z,10.05
2023-05-20T15:48:24.124Z,10.13
2023-05-20T15:50:51.361Z,11.63
2023-05-20T15:53:18.638Z,9.15
2023-05-20T15:55:46.183Z,7.97
2023-05-20T15:58:13.357Z,8.60
2023-05-20T16:00:40.725Z,8.93
2023-05-20T16:03:08.474Z,9.45
2023-05-20T16:05:36.130Z,11.95
2023-05-20T16:08:03.642Z,7.72
2023-05-20T16:10:34.739Z,11.00
2023-05-20T16:13:02.263Z,9.30
2023-05-20T16:15:35.532Z,8.40
2023-05-20T16:18:03.282Z,9.55
2023-05-20T16:20:30.610Z,8.38
2023-05-20T16:22:57.906Z,11.38
2023-05-20T16:25:25.315Z,11.70
2023-05-20T16:27:52.595Z,10.93
2023-05-20T16:30:19.883Z,8.95
2023-05-20T16:32:47.377Z,12.57
2023-05-20T16:35:16.250Z,9.05
2023-05-20T16:37:44.579Z,10.27
2023-05-20T16:40:12.045Z,8.15
2023-05-20T16:42:39.831Z,8.20
2023-05-20T16:45:07.303Z,7.85
2023-05-20T16:47:37.300Z,7.78
2023-05-20T16:50:05.251Z,9.85
2023-05-20T16:52:34.381Z,7.65
2023-05-20T16:55:04.759Z,12.55
2023-05-20T16:57:32.796Z,9.52
2023-05-20T17:00:00.062Z,8.93
2023-05-20T17:02:27.361Z,8.13
2023-05-20T17:04:54.680Z,8.02
2023-05-20T17:07:21.871Z,9.63
2023-05-20T17:09:49.097Z,9.38
2023-05-20T17:12:16.673Z,9.77
2023-05-20T17:14:43.984Z,9.70
2023-05-20T17:17:13.988Z,10.43
2023-05-20T17:19:41.305Z,9.68
2023-05-20T17:22:08.549Z,9.02
2023-05-20T17:24:35.922Z,12.02
2023-05-20T17:27:03.763Z,9.48
2023-05-20T17:29:31.576Z,11.05
2023-05-20T17:31:58.795Z,9.07
2023-05-20T17:34:26.080Z,10.48
2023-05-20T17:36:53.266Z,9.57
2023-05-20T17:39:20.702Z,10.10
2023-05-20T17:41:47.948Z,9.75
2023-05-20T17:44:15.180Z,8.77
2023-05-20T17:46:42.449Z,9.90
2023-05-20T17:49:09.691Z,8.85
2023-05-20T17:51:37.069Z,11.15
2023-05-20T17:54:04.359Z,12.10
2023-05-20T17:56:31.635Z,9.20
2023-05-20T17:58:58.914Z,12.18
2023-05-20T18:01:26.943Z,8.88
2023-05-20T18:03:54.320Z,11.98
2023-05-20T18:06:21.754Z,8.85
2023-05-20T18:08:49.030Z,10.88
2023-05-20T18:11:16.296Z,9.43
2023-05-20T18:13:43.514Z,11.23
2023-05-20T18:16:10.914Z,11.43
2023-05-20T18:18:38.192Z,11.20
2023-05-20T18:21:07.808Z,12.98
2023-05-20T18:23:35.100Z,10.77
2023-05-20T18:26:07.184Z,10.32
2023-05-20T18:28:34.434Z,10.40
2023-05-20T18:31:01.828Z,11.93
2023-05-20T18:33:29.326Z,11.27
2023-05-20T18:35:56.936Z,10.07
2023-05-20T18:38:24.140Z,8.73
2023-05-20T18:40:51.466Z,10.20
2023-05-20T18:43:18.679Z,10.82
2023-05-20T18:45:46.133Z,10.02
2023-05-20T18:48:20.231Z,10.25
2023-05-20T18:50:53.103Z,10.60
2023-05-20T18:53:20.443Z,16.58
2023-05-20T18:55:47.826Z,8.88
2023-05-20T18:58:15.668Z,9.20
2023-05-20T19:00:42.934Z,9.77
2023-05-20T19:03:10.316Z,10.25
2023-05-20T19:05:37.810Z,10.93
2023-05-20T19:08:06.048Z,13.98
2023-05-20T19:10:33.463Z,12.32
2023-05-20T19:13:01.824Z,11.50
2023-05-20T19:15:31.142Z,9.15
2023-05-20T19:17:58.611Z,10.85
2023-05-20T19:20:26.090Z,10.30
2023-05-20T19:22:53.444Z,10.10
2023-05-20T19:25:20.760Z,10.75
2023-05-20T19:27:47.971Z,12.88
2023-05-20T19:30:15.339Z,15.60
2023-05-20T19:32:42.648Z,9.82
2023-05-20T19:35:10.164Z,14.10
2023-05-20T19:37:37.324Z,11.10
2023-05-20T19:40:04.660Z,10.20
2023-05-20T19:42:31.987Z,11.25
2023-05-20T19:44:59.448Z,14.00
2023-05-20T19:47:26.769Z,9.35
2023-05-20T19:49:54.302Z,11.25
2023-05-20T19:52:21.874Z,12.18
2023-05-20T19:54:49.263Z,11.77
2023-05-20T19:57:16.430Z,11.75
2023-05-20T19:59:43.676Z,10.50
2023-05-20T20:02:11.091Z,12.38
2023-05-20T20:04:38.493Z,15.50
2023-05-20T20:07:07.566Z,17.38
2023-05-20T20:09:34.818Z,12.63
2023-05-20T20:12:04.903Z,13.55
2023-05-20T20:14:32.316Z,14.73
2023-05-20T20:17:00.160Z,11.85
2023-05-20T20:19:28.579Z,11.73
2023-05-20T20:21:56.737Z,11.82
2023-05-20T20:24:26.740Z,11.10
2023-05-20T20:26:54.403Z,11.32
2023-05-20T20:29:24.920Z,10.63
2023-05-20T20:31:52.554Z,11.60
2023-05-20T20:34:19.913Z,12.55
2023-05-20T20:36:47.624Z,11.30
2023-05-20T20:39:22.736Z,11.88
2023-05-20T20:41:51.123Z,11.10
2023-05-20T20:44:20.996Z,9.50
2023-05-20T20:46:51.329Z,11.38
2023-05-20T20:49:22.110Z,10.95
2023-05-20T20:51:50.136Z,10.05
2023-05-20T20:54:17.657Z,10.68
2023-05-20T20:56:47.063Z,13.88
2023-05-20T20:59:16.145Z,10.88
2023-05-20T21:01:44.886Z,11.93
2023-05-20T21:04:14.045Z,11.13
2023-05-20T21:06:47.897Z,10.55
2023-05-20T21:09:15.881Z,9.77
2023-05-20T21:11:43.393Z,12.25
2023-05-20T21:14:10.901Z,11.32
2023-05-20T21:16:38.439Z,11.85
2023-05-20T21:19:06.142Z,10.10
2023-05-20T21:21:33.764Z,11.98
2023-05-20T21:24:01.150Z,10.50
2023-05-20T21:26:28.301Z,11.88
2023-05-20T21:28:55.656Z,11.05
2023-05-20T21:31:23.014Z,11.05
2023-05-20T21:33:50.493Z,11.98
2023-05-20T21:36:17.665Z,10.95
2023-05-20T21:38:44.895Z,10.05
2023-05-20T21:41:12.075Z,11.00
2023-05-20T21:43:39.388Z,10.80
2023-05-20T21:46:08.065Z,11.65
2023-05-20T21:48:35.350Z,10.45
2023-05-20T21:51:02.651Z,12.27
2023-05-20T21:53:30.002Z,11.90
2023-05-20T21:55:57.391Z,10.60
2023-05-20T21:58:24.628Z,10.73
2023-05-20T22:00:51.991Z,10.57
2023-05-20T22:03:19.399Z,11.15
2023-05-20T22:05:46.631Z,10.75
2023-05-20T22:08:14.122Z,11.38
2023-05-20T22:10:41.672Z,9.85
2023-05-20T22:13:10.976Z,11.20
2023-05-20T22:15:38.310Z,10.82
2023-05-20T22:18:07.582Z,10.02
2023-05-20T22:20:35.460Z,13.00
2023-05-20T22:23:04.504Z,9.75
2023-05-20T22:25:32.372Z,11.18
2023-05-20T22:27:59.884Z,11.02
2023-05-20T22:30:27.390Z,10.20
2023-05-20T22:32:54.795Z,9.60
2023-05-20T22:35:23.818Z,12.93
2023-05-20T22:37:51.509Z,10.98
2023-05-20T22:40:18.751Z,13.38
2023-05-20T22:42:46.232Z,10.32
2023-05-20T22:45:13.536Z,11.55
2023-05-20T22:47:40.885Z,10.75
2023-05-20T22:50:08.724Z,12.40
2023-05-20T22:52:36.918Z,10.43
2023-05-20T22:55:04.359Z,10.48
2023-05-20T22:57:31.574Z,11.80
2023-05-20T22:59:58.805Z,10.93
2023-05-20T23:02:26.190Z,10.02
2023-05-20T23:04:53.503Z,12.10
2023-05-20T23:07:21.870Z,11.45
2023-05-20T23:09:49.310Z,10.90
2023-05-20T23:12:16.747Z,9.45
2023-05-20T23:14:44.320Z,9.27
2023-05-20T23:17:11.957Z,9.27
2023-05-20T23:19:39.294Z,9.48
2023-05-20T23:22:06.739Z,10.40
2023-05-20T23:24:34.153Z,9.02
2023-05-20T23:27:01.428Z,11.10
2023-05-20T23:29:28.734Z,10.43
2023-05-20T23:31:56.103Z,8.30
2023-05-20T23:34:23.282Z,10.48
2023-05-20T23:36:52.805Z,7.78
2023-05-20T23:39:20.297Z,7.70
2023-05-20T23:41:47.601Z,14.07
2023-05-20T23:44:14.905Z,10.77
2023-05-20T23:46:42.225Z,10.45
2023-05-20T23:49:12.606Z,8.32
2023-05-20T23:51:39.847Z,9.25
2023-05-20T23:54:07.316Z,9.57
2023-05-20T23:56:34.507Z,10.77
2023-05-20T23:59:02.167Z,9.50
